Palma, Kentucky
Current Conditions -  °F | °C
As of 3:15 AM on Monday 20 Oct 2014 (Local Time) from KM25 Reporting Station
Clear Clear  
Wind Chill: 46°   Ceiling: Unl
Heat Index: 46°   Visibility: 7mi
Dew Point: 45°   Wind: 3mph
Humidity: 93%   Direction: 210°SSW
Pressure: 30.07"   Gusts: NA
Location:  36.8777°N, 88.361°W
Report Text: KM25 200815Z AUTO 21003KT 7SM CLR 08/07 A3007 RMK AO2
Loading
Personal Weather Stations






























Interactive Weather Map
Tropical Storm Tracking
New forecast layout! Learn more

10-Day Weather Forecast

Advertisements
Track Severe Weather on mobile